You are listening to:
KDED CTAF/Misc - DeLand, Florida, United States

KDED 210330Z AUTO 00000KT 10SM CLR 15/12 A3009 RMK AO2 T01470120

If stream doesn't start automatically press the play button
If stream stops then reload player then press play